KVCT/VCT METAR and TAF weather

Enter ICAO airport designator
Station Type Date Time Source
KVCT METAR 2021/03/04 20:51 UTC NOAA

KVCT 042051Z 14013G17KT 10SM CLR 22/11 A3004 RMK AO2 SLP171 T02220106 56032


Station Type Date Time Source
KVCT Decoded METAR 2021/03/04 20:51 UTC NOAA

VICTORIA REGIONAL AIRPORT, TX, United States (KVCT) 28-52N 96-56W 31M
Mar 04, 2021 - 03:51 PM EST / 2021.03.04 2051 UTC
Wind: from the SE (140 degrees) at 15 MPH (13 KT) gusting to 20 MPH (17 KT):0
Visibility: 10 mile(s):0
Sky conditions: clear
Temperature: 72.0 F (22.2 C)
Dew Point: 51.1 F (10.6 C)
Relative Humidity: 47%
Pressure (altimeter): 30.04 in. Hg (1017 hPa)
Pressure tendency: 0.09 inches (3.2 hPa) lower than three hours ago
ob: KVCT 042051Z 14013G17KT 10SM CLR 22/11 A3004 RMK AO2 SLP171 T02220106 56032
cycle: 21

Station Type Date Time Source
KVCT TAF 2021/03/04 18:27 UTC NOAA

TAF KVCT 041724Z 0418/0518 14012KT P6SM SCT030 SCT250
FM050800 VRB03KT 5SM BR OVC015
TEMPO 0510/0514 2SM BR OVC015
FM051500 23008KT P6SM VCSH OVC015

Example: see airport list